createdAt,value
2022-11-16T00:02:11.498Z,99377.31
2022-11-16T00:04:38.038Z,99378.59
2022-11-16T00:07:04.735Z,99372.78
2022-11-16T00:09:31.935Z,99368.44
2022-11-16T00:11:59.774Z,99366.78
2022-11-16T00:14:27.377Z,99367.59
2022-11-16T00:16:53.795Z,99371.38
2022-11-16T00:19:20.110Z,99363.47
2022-11-16T00:21:46.592Z,99366.41
2022-11-16T00:24:13.820Z,99364.31
2022-11-16T00:26:40.567Z,99365.09
2022-11-16T00:29:12.322Z,99366.19
2022-11-16T00:31:38.650Z,99358.06
2022-11-16T00:34:05.051Z,99362.19
2022-11-16T00:36:31.366Z,99365.50
2022-11-16T00:38:57.669Z,99364.66
2022-11-16T00:41:24.081Z,99360.88
2022-11-16T00:43:50.462Z,99355.97
2022-11-16T00:46:16.793Z,99353.81
2022-11-16T00:48:43.067Z,99347.34
2022-11-16T00:51:09.389Z,99348.41
2022-11-16T00:53:36.232Z,99344.91
2022-11-16T00:56:02.568Z,99348.84
2022-11-16T00:58:28.831Z,99345.13
2022-11-16T01:00:55.176Z,99348.41
2022-11-16T01:03:21.488Z,99350.06
2022-11-16T01:05:47.914Z,99349.25
2022-11-16T01:08:14.467Z,99352.19
2022-11-16T01:10:41.470Z,99351.13
2022-11-16T01:13:07.948Z,99353.81
2022-11-16T01:15:34.199Z,99355.47
2022-11-16T01:18:00.579Z,99354.22
2022-11-16T01:20:27.840Z,99355.03
2022-11-16T01:22:54.182Z,99345.94
2022-11-16T01:25:20.830Z,99347.34
2022-11-16T01:27:47.476Z,99347.34
2022-11-16T01:30:15.280Z,99351.13
2022-11-16T01:32:41.770Z,99355.25
2022-11-16T01:35:08.591Z,99345.84
2022-11-16T01:37:34.882Z,99352.09
2022-11-16T01:40:01.221Z,99334.75
2022-11-16T01:42:28.593Z,99359.19
2022-11-16T01:44:56.967Z,99349.59
2022-11-16T01:47:27.714Z,99351.06
2022-11-16T01:50:06.155Z,99357.28
2022-11-16T01:52:35.257Z,99352.47
2022-11-16T01:55:02.099Z,99357.03
2022-11-16T01:57:31.692Z,99364.50
2022-11-16T01:59:58.982Z,99358.25
2022-11-16T02:02:25.254Z,99356.38
2022-11-16T02:04:52.403Z,99355.31
2022-11-16T02:07:23.046Z,99347.19
2022-11-16T02:09:55.160Z,99353.22
2022-11-16T02:12:21.430Z,99349.06
2022-11-16T02:14:53.770Z,99348.69
2022-11-16T02:17:28.893Z,99349.88
2022-11-16T02:19:55.173Z,99348.84
2022-11-16T02:22:39.347Z,99348.63
2022-11-16T02:25:29.452Z,99336.13
2022-11-16T02:28:12.870Z,99320.25
2022-11-16T02:30:43.691Z,99322.34
2022-11-16T02:33:12.549Z,99311.50
2022-11-16T02:35:46.730Z,99306.69
2022-11-16T02:38:19.082Z,99295.63
2022-11-16T02:40:47.886Z,99297.94
2022-11-16T02:43:17.656Z,99296.31
2022-11-16T02:45:46.148Z,99287.56
2022-11-16T02:48:19.488Z,99285.69
2022-11-16T02:50:46.599Z,99270.75
2022-11-16T02:53:12.931Z,99283.22
2022-11-16T02:55:39.219Z,99282.63
2022-11-16T02:58:06.923Z,99279.91
2022-11-16T03:00:43.522Z,99287.00
2022-11-16T03:03:22.084Z,99282.38
2022-11-16T03:05:51.043Z,99284.28
2022-11-16T03:08:26.511Z,99278.03
2022-11-16T03:11:22.562Z,99276.16
2022-11-16T03:13:49.471Z,99283.34
2022-11-16T03:16:26.958Z,99292.25
2022-11-16T03:18:55.423Z,99306.41
2022-11-16T03:21:21.784Z,99307.00
2022-11-16T03:23:48.483Z,99308.91
2022-11-16T03:26:16.407Z,99296.78
2022-11-16T03:28:50.026Z,99291.59
2022-11-16T03:31:24.320Z,99303.72
2022-11-16T03:33:55.871Z,99308.50
2022-11-16T03:36:28.632Z,99299.94
2022-11-16T03:38:56.072Z,99309.97
2022-11-16T03:41:24.247Z,99305.34
2022-11-16T03:43:51.642Z,99304.91
2022-11-16T03:46:18.049Z,99311.16
2022-11-16T03:48:44.288Z,99308.91
2022-11-16T03:51:11.062Z,99316.19
2022-11-16T03:53:37.418Z,99322.06
2022-11-16T03:56:03.789Z,99324.19
2022-11-16T03:58:30.394Z,99333.34
2022-11-16T04:00:56.931Z,99333.13
2022-11-16T04:03:23.275Z,99335.47
2022-11-16T04:06:08.311Z,99341.69
2022-11-16T04:08:53.087Z,99339.22
2022-11-16T04:11:39.007Z,99333.81
2022-11-16T04:14:24.268Z,99338.75
2022-11-16T04:17:09.164Z,99336.22
2022-11-16T04:19:57.891Z,99348.69
2022-11-16T04:22:46.523Z,99344.69
2022-11-16T04:25:15.810Z,99324.09
2022-11-16T04:28:00.668Z,99325.28
2022-11-16T04:30:47.166Z,99323.84
2022-11-16T04:33:31.994Z,99334.09
2022-11-16T04:36:20.570Z,99337.41
2022-11-16T04:38:47.145Z,99350.72
2022-11-16T04:41:33.396Z,99351.78
2022-11-16T04:43:59.666Z,99366.31
2022-11-16T04:46:44.744Z,99372.22
2022-11-16T04:49:10.987Z,99360.78
2022-11-16T04:51:37.294Z,99376.56
2022-11-16T04:54:03.545Z,99380.31
2022-11-16T04:56:29.886Z,99373.84
2022-11-16T04:58:56.114Z,99375.13
2022-11-16T05:01:42.451Z,99376.56
2022-11-16T05:04:08.874Z,99372.78
2022-11-16T05:06:35.283Z,99370.25
2022-11-16T05:09:01.563Z,99375.50
2022-11-16T05:11:27.806Z,99370.47
2022-11-16T05:13:54.093Z,99341.97
2022-11-16T05:16:20.505Z,99373.16
2022-11-16T05:19:06.735Z,99374.44
2022-11-16T05:21:33.001Z,99372.22
2022-11-16T05:24:18.191Z,99376.84
2022-11-16T05:26:44.459Z,99382.75
2022-11-16T05:29:10.737Z,99383.31
2022-11-16T05:31:40.437Z,99380.63
2022-11-16T05:34:08.285Z,99380.03
2022-11-16T05:36:34.659Z,99382.13
2022-11-16T05:39:00.994Z,99388.28
2022-11-16T05:41:27.569Z,99395.81
2022-11-16T05:43:55.222Z,99399.00
2022-11-16T05:46:21.780Z,99394.03
2022-11-16T05:48:48.041Z,99387.25
2022-11-16T05:51:14.419Z,99393.72
2022-11-16T05:53:40.823Z,99383.03
2022-11-16T05:56:07.339Z,99380.16
2022-11-16T05:58:33.963Z,99384.38
2022-11-16T06:01:00.504Z,99381.75
2022-11-16T06:03:30.191Z,99398.47
2022-11-16T06:05:57.112Z,99396.19
2022-11-16T06:08:23.787Z,99399.97
2022-11-16T06:10:50.229Z,99398.97
2022-11-16T06:13:16.659Z,99405.06
2022-11-16T06:18:23.246Z,99416.25
2022-11-16T06:20:49.907Z,99422.28
2022-11-16T06:23:16.261Z,99433.56
2022-11-16T06:25:43.135Z,99433.56
2022-11-16T06:28:10.198Z,99431.94
2022-11-16T06:30:38.128Z,99441.53
2022-11-16T06:33:04.982Z,99438.41
2022-11-16T06:35:31.327Z,99444.84
2022-11-16T06:37:58.158Z,99439.88
2022-11-16T06:40:25.178Z,99443.81
2022-11-16T06:42:51.567Z,99439.66
2022-11-16T06:45:17.879Z,99439.44
2022-11-16T06:47:44.127Z,99446.53
2022-11-16T06:50:10.524Z,99438.63
2022-11-16T06:52:36.797Z,99440.75
2022-11-16T06:55:03.043Z,99443.59
2022-11-16T06:57:29.317Z,99455.91
2022-11-16T06:59:55.657Z,99450.69
2022-11-16T07:02:22.830Z,99457.63
2022-11-16T07:04:49.106Z,99459.91
2022-11-16T07:07:16.200Z,99471.97
2022-11-16T07:09:44.467Z,99465.78
2022-11-16T07:12:11.078Z,99468.69
2022-11-16T07:14:37.534Z,99485.13
2022-11-16T07:17:09.072Z,99485.13
2022-11-16T07:19:36.649Z,99486.13
2022-11-16T07:22:03.454Z,99494.09
2022-11-16T07:24:29.729Z,99496.59
2022-11-16T07:26:56.031Z,99498.69
2022-11-16T07:29:22.500Z,99502.19
2022-11-16T07:31:48.770Z,99505.34
2022-11-16T07:34:15.014Z,99516.19
2022-11-16T07:36:59.785Z,99519.50
2022-11-16T07:39:45.713Z,99529.28
2022-11-16T07:42:30.716Z,99530.72
2022-11-16T07:45:15.506Z,99520.78
2022-11-16T07:48:21.583Z,99523.47
2022-11-16T07:50:47.870Z,99522.41
2022-11-16T07:53:14.150Z,99530.94
2022-11-16T07:55:40.545Z,99535.50
2022-11-16T07:58:07.083Z,99535.28
2022-11-16T08:00:33.402Z,99534.47
2022-11-16T08:02:59.635Z,99536.94
2022-11-16T08:05:27.348Z,99538.84
2022-11-16T08:07:53.686Z,99542.34
2022-11-16T08:10:20.056Z,99540.06
2022-11-16T08:12:46.417Z,99541.72
2022-11-16T08:15:14.019Z,99552.72
2022-11-16T08:17:40.458Z,99557.09
2022-11-16T08:20:08.251Z,99577.66
2022-11-16T08:22:34.540Z,99576.41
2022-11-16T08:25:00.882Z,99570.97
2022-11-16T08:27:27.293Z,99573.88
2022-11-16T08:29:53.567Z,99577.59
2022-11-16T08:32:19.837Z,99579.47
2022-11-16T08:34:46.122Z,99591.06
2022-11-16T08:37:12.389Z,99595.00
2022-11-16T08:39:38.688Z,99592.44
2022-11-16T08:42:05.035Z,99596.75
2022-11-16T08:44:31.360Z,99598.41
2022-11-16T08:46:57.681Z,99596.28
2022-11-16T08:49:26.894Z,99595.22
2022-11-16T08:54:37.236Z,99605.59
2022-11-16T08:57:03.571Z,99604.47
2022-11-16T08:59:29.799Z,99608.72
2022-11-16T09:01:56.095Z,99597.81
2022-11-16T09:04:23.279Z,99595.66
2022-11-16T09:06:49.648Z,99596.69
2022-11-16T09:09:15.955Z,99601.03
2022-11-16T09:11:42.285Z,99594.41
2022-11-16T09:16:58.409Z,99603.13
2022-11-16T09:19:24.719Z,99596.69
2022-11-16T09:21:51.051Z,99606.06
2022-11-16T09:24:17.455Z,99607.31
2022-11-16T09:26:43.720Z,99609.19
2022-11-16T09:29:13.880Z,99608.97
2022-11-16T09:31:40.177Z,99616.50
2022-11-16T09:34:06.552Z,99612.75
2022-11-16T09:36:33.122Z,99609.03
2022-11-16T09:39:30.253Z,99615.97
2022-11-16T09:42:03.647Z,99613.47
2022-11-16T09:44:37.656Z,99609.06
2022-11-16T09:47:04.591Z,99611.78
2022-11-16T09:49:33.147Z,99610.34
2022-11-16T09:54:47.131Z,99608.69
2022-11-16T09:57:16.293Z,99610.13
2022-11-16T09:59:48.296Z,99610.75
2022-11-16T10:02:32.403Z,99611.78
2022-11-16T10:05:03.577Z,99607.84
2022-11-16T10:07:33.317Z,99613.25
2022-11-16T10:09:59.807Z,99599.09
2022-11-16T10:12:46.160Z,99599.09
2022-11-16T10:15:38.635Z,99596.16
2022-11-16T10:18:08.850Z,99591.38
2022-11-16T10:20:35.126Z,99589.88
2022-11-16T10:23:04.435Z,99586.94
2022-11-16T10:25:42.047Z,99592.16
2022-11-16T10:28:26.312Z,99592.16
2022-11-16T10:30:59.631Z,99577.53
2022-11-16T10:33:27.940Z,99578.16
2022-11-16T10:35:54.289Z,99591.25
2022-11-16T10:38:22.097Z,99590.19
2022-11-16T10:41:11.817Z,99563.97
2022-11-16T10:43:38.377Z,99571.41
2022-11-16T10:46:04.823Z,99570.38
2022-11-16T10:48:51.369Z,99560.13
2022-11-16T10:51:17.712Z,99561.19
2022-11-16T10:53:44.193Z,99561.78
2022-11-16T10:56:13.437Z,99557.41
2022-11-16T10:58:59.621Z,99556.38
2022-11-16T11:01:39.373Z,99563.88
2022-11-16T11:04:16.628Z,99556.75
2022-11-16T11:06:43.687Z,99552.94
2022-11-16T11:09:22.615Z,99546.53
2022-11-16T11:12:22.623Z,99547.06
2022-11-16T11:14:57.964Z,99544.97
2022-11-16T11:17:24.830Z,99537.91
2022-11-16T11:19:58.729Z,99535.22
2022-11-16T11:22:25.000Z,99528.06
2022-11-16T11:24:51.430Z,99529.91
2022-11-16T11:27:21.744Z,99527.44
2022-11-16T11:29:51.123Z,99533.06
2022-11-16T11:32:23.933Z,99535.22
2022-11-16T11:34:52.739Z,99545.78
2022-11-16T11:37:20.847Z,99520.16
2022-11-16T11:42:31.460Z,99519.31
2022-11-16T11:44:58.495Z,99515.13
2022-11-16T11:47:57.309Z,99511.59
2022-11-16T11:50:27.127Z,99502.81
2022-11-16T11:53:02.259Z,99498.84
2022-11-16T11:55:31.622Z,99496.38
2022-11-16T11:57:59.381Z,99464.91
2022-11-16T12:00:26.066Z,99493.66
2022-11-16T12:03:01.424Z,99486.75
2022-11-16T12:05:35.217Z,99489.47
2022-11-16T12:08:07.283Z,99480.94
2022-11-16T12:10:53.451Z,99479.72
2022-11-16T12:13:19.658Z,99476.16
2022-11-16T12:15:48.984Z,99473.47
2022-11-16T12:18:23.015Z,99473.91
2022-11-16T12:20:55.418Z,99460.13
2022-11-16T12:23:21.644Z,99472.34
2022-11-16T12:25:51.151Z,99474.53
2022-11-16T12:28:24.873Z,99461.25
2022-11-16T12:31:10.147Z,99472.16
2022-11-16T12:33:46.032Z,99470.31
2022-11-16T12:36:29.080Z,99464.25
2022-11-16T12:39:05.866Z,99457.34
2022-11-16T12:41:41.340Z,99454.72
2022-11-16T12:44:14.758Z,99455.19
2022-11-16T12:46:50.627Z,99454.47
2022-11-16T12:49:24.129Z,99456.72
2022-11-16T12:51:50.387Z,99446.25
2022-11-16T12:54:26.513Z,99440.47
2022-11-16T12:56:52.763Z,99446.97
2022-11-16T12:59:34.467Z,99443.34
2022-11-16T13:02:06.963Z,99439.88
2022-11-16T13:04:41.026Z,99433.66
2022-11-16T13:07:13.652Z,99437.31
2022-11-16T13:09:43.259Z,99433.63
2022-11-16T13:12:14.139Z,99429.97
2022-11-16T13:14:43.411Z,99429.97
2022-11-16T13:17:15.113Z,99431.16
2022-11-16T13:19:44.761Z,99370.34
2022-11-16T13:22:14.604Z,99424.81
2022-11-16T13:24:44.295Z,99427.75
2022-11-16T13:27:24.899Z,99430.22
2022-11-16T13:29:55.811Z,99430.94
2022-11-16T13:32:30.459Z,99422.41
2022-11-16T13:34:58.094Z,99426.06
2022-11-16T13:37:36.552Z,99412.38
2022-11-16T13:40:03.393Z,99413.31
2022-11-16T13:42:31.233Z,99418.63
2022-11-16T13:45:08.606Z,99413.66
2022-11-16T13:47:35.321Z,99407.41
2022-11-16T13:50:03.224Z,99410.94
2022-11-16T13:53:46.144Z,99399.63
2022-11-16T13:55:44.098Z,99394.69
2022-11-16T13:58:12.411Z,99391.75
2022-11-16T14:00:39.921Z,99390.66
2022-11-16T14:03:15.241Z,99390.44
2022-11-16T14:05:42.600Z,99384.16
2022-11-16T14:08:24.240Z,99390.66
2022-11-16T14:10:50.467Z,99394.69
2022-11-16T14:13:38.371Z,99388.66
2022-11-16T14:16:19.750Z,99395.97
2022-11-16T14:18:47.605Z,99393.84
2022-11-16T14:21:20.170Z,99387.97
2022-11-16T14:24:05.584Z,99388.19
2022-11-16T14:26:44.210Z,99389.03
2022-11-16T14:29:10.507Z,99393.38
2022-11-16T14:31:52.265Z,99386.41
2022-11-16T14:34:38.509Z,99380.28
2022-11-16T14:37:04.848Z,99386.66
2022-11-16T14:39:43.977Z,99388.56
2022-11-16T14:42:18.060Z,99392.94
2022-11-16T14:44:44.602Z,99395.03
2022-11-16T14:47:23.234Z,99380.66
2022-11-16T14:49:49.552Z,99391.50
2022-11-16T14:52:17.330Z,99376.28
2022-11-16T14:54:50.034Z,99381.47
2022-11-16T14:57:20.519Z,99374.03
2022-11-16T14:59:53.005Z,99363.53
2022-11-16T15:02:21.124Z,99358.81
2022-11-16T15:04:48.557Z,99359.28
2022-11-16T15:07:15.413Z,99353.75
2022-11-16T15:09:44.676Z,99353.13
2022-11-16T15:12:37.079Z,99349.25
2022-11-16T15:15:07.821Z,99351.13
2022-11-16T15:17:34.635Z,99339.09
2022-11-16T15:20:02.025Z,99342.88
2022-11-16T15:22:30.262Z,99342.88
2022-11-16T15:24:57.588Z,99342.03
2022-11-16T15:27:41.348Z,99346.63
2022-11-16T15:30:15.134Z,99349.22
2022-11-16T15:32:45.927Z,99338.84
2022-11-16T15:35:15.783Z,99336.59
2022-11-16T15:37:42.043Z,99333.03
2022-11-16T15:40:09.231Z,99334.34
2022-11-16T15:42:36.979Z,99327.75
2022-11-16T15:45:10.470Z,99321.47
2022-11-16T15:47:42.172Z,99329.50
2022-11-16T15:50:15.778Z,99324.91
2022-11-16T15:52:43.542Z,99316.19
2022-11-16T15:55:23.838Z,99317.47
2022-11-16T15:57:59.124Z,99318.50
2022-11-16T16:00:25.846Z,99307.91
2022-11-16T16:02:52.186Z,99306.72
2022-11-16T16:05:23.948Z,99307.19
2022-11-16T16:07:50.474Z,99303.28
2022-11-16T16:10:19.542Z,99296.06
2022-11-16T16:12:52.831Z,99289.25
2022-11-16T16:15:22.202Z,99294.53
2022-11-16T16:17:48.774Z,99298.16
2022-11-16T16:20:18.152Z,99304.25
2022-11-16T16:22:44.827Z,99302.22
2022-11-16T16:25:31.392Z,99303.97
2022-11-16T16:28:00.586Z,99300.66
2022-11-16T16:30:28.182Z,99304.91
2022-11-16T16:32:54.674Z,99306.19
2022-11-16T16:35:22.233Z,99305.81
2022-11-16T16:37:49.684Z,99297.09
2022-11-16T16:40:17.083Z,99301.31
2022-11-16T16:42:43.598Z,99293.06
2022-11-16T16:45:16.657Z,99291.88
2022-11-16T16:47:42.907Z,99293.97
2022-11-16T16:50:09.567Z,99285.84
2022-11-16T16:52:35.801Z,99296.44
2022-11-16T16:55:02.050Z,99285.38
2022-11-16T16:57:28.540Z,99275.63
2022-11-16T16:59:54.917Z,99272.91
2022-11-16T17:02:21.362Z,99272.91
2022-11-16T17:04:48.371Z,99271.72
2022-11-16T17:07:15.423Z,99266.75
2022-11-16T17:09:42.117Z,99267.22
2022-11-16T17:12:08.548Z,99261.63
2022-11-16T17:14:34.817Z,99269.19
2022-11-16T17:17:01.065Z,99254.41
2022-11-16T17:19:27.793Z,99243.47
2022-11-16T17:21:54.135Z,99242.84
2022-11-16T17:24:20.435Z,99253.56
2022-11-16T17:26:50.433Z,99251.38
2022-11-16T17:29:16.728Z,99241.03
2022-11-16T17:31:44.075Z,99247.09
2022-11-16T17:34:13.840Z,99248.13
2022-11-16T17:36:43.441Z,99235.09
2022-11-16T17:39:09.714Z,99238.81
2022-11-16T17:41:36.029Z,99230.13
2022-11-16T17:44:02.336Z,99232.22
2022-11-16T17:46:28.966Z,99236.56
2022-11-16T17:48:55.296Z,99239.28
2022-11-16T17:51:23.580Z,99244.47
2022-11-16T17:53:49.907Z,99234.47
2022-11-16T17:56:17.580Z,99223.03
2022-11-16T17:58:47.181Z,99220.78
2022-11-16T18:01:14.178Z,99223.97
2022-11-16T18:03:40.784Z,99207.81
2022-11-16T18:06:08.619Z,99210.38
2022-11-16T18:08:36.218Z,99199.63
2022-11-16T18:11:03.378Z,99214.19
2022-11-16T18:13:29.672Z,99209.69
2022-11-16T18:16:01.360Z,99206.56
2022-11-16T18:18:27.649Z,99201.84
2022-11-16T18:20:53.909Z,99209.34
2022-11-16T18:23:20.179Z,99216.25
2022-11-16T18:25:46.421Z,99202.34
2022-11-16T18:28:12.747Z,99205.88
2022-11-16T18:30:39.107Z,99206.13
2022-11-16T18:33:05.419Z,99205.88
2022-11-16T18:35:31.696Z,99201.53
2022-11-16T18:37:57.931Z,99204.25
2022-11-16T18:40:24.173Z,99214.84
2022-11-16T18:42:50.399Z,99216.94
2022-11-16T18:45:16.672Z,99207.97
2022-11-16T18:47:42.994Z,99205.72
2022-11-16T18:50:18.053Z,99210.84
2022-11-16T18:52:46.611Z,99205.59
2022-11-16T18:55:12.903Z,99205.13
2022-11-16T18:57:39.465Z,99196.63
2022-11-16T19:00:06.536Z,99203.22
2022-11-16T19:02:32.795Z,99199.63
2022-11-16T19:04:59.046Z,99185.03
2022-11-16T19:07:27.368Z,99184.22
2022-11-16T19:09:53.823Z,99171.75
2022-11-16T19:12:20.190Z,99177.97
2022-11-16T19:14:46.510Z,99178.16
2022-11-16T19:17:12.860Z,99184.97
2022-11-16T19:19:39.118Z,99176.25
2022-11-16T19:22:05.416Z,99185.81
2022-11-16T19:24:31.818Z,99177.09
2022-11-16T19:26:58.236Z,99169.19
2022-11-16T19:29:24.571Z,99175.00
2022-11-16T19:31:50.838Z,99173.78
2022-11-16T19:34:17.127Z,99179.19
2022-11-16T19:36:43.360Z,99178.16
2022-11-16T19:39:09.624Z,99157.53
2022-11-16T19:41:35.956Z,99161.19
2022-11-16T19:44:02.338Z,99163.88
2022-11-16T19:46:32.667Z,99161.75
2022-11-16T19:48:59.220Z,99162.59
2022-11-16T19:51:26.896Z,99165.53
2022-11-16T19:53:53.458Z,99157.41
2022-11-16T19:56:21.068Z,99144.94
2022-11-16T19:59:00.218Z,99133.13
2022-11-16T20:01:29.968Z,99139.38
2022-11-16T20:03:59.065Z,99137.28
2022-11-16T20:06:28.909Z,99142.53
2022-11-16T20:08:56.103Z,99118.19
2022-11-16T20:11:23.566Z,99107.00
2022-11-16T20:13:50.837Z,99098.06
2022-11-16T20:16:18.652Z,99092.47
2022-11-16T20:18:45.329Z,99084.25
2022-11-16T20:21:13.129Z,99076.13
2022-11-16T20:23:39.435Z,99075.28
2022-11-16T20:26:05.947Z,99074.00
2022-11-16T20:28:36.218Z,99060.50
2022-11-16T20:31:05.112Z,99065.44
2022-11-16T20:33:33.004Z,99051.34
2022-11-16T20:36:03.416Z,99064.25
2022-11-16T20:38:31.499Z,99055.09
2022-11-16T20:40:57.793Z,99067.56
2022-11-16T20:43:24.129Z,99065.66
2022-11-16T20:45:53.712Z,99062.84
2022-11-16T20:48:20.010Z,99049.69
2022-11-16T20:50:50.606Z,99053.00
2022-11-16T20:53:16.836Z,99045.50
2022-11-16T20:55:43.436Z,99046.06
2022-11-16T20:58:09.676Z,99040.09
2022-11-16T21:00:35.965Z,99052.53
2022-11-16T21:03:02.272Z,99039.03
2022-11-16T21:05:28.687Z,99039.03
2022-11-16T21:07:54.964Z,99038.56
2022-11-16T21:10:21.278Z,99025.50
2022-11-16T21:13:05.916Z,99027.59
2022-11-16T21:15:32.159Z,99020.09
2022-11-16T21:17:58.608Z,99011.38
2022-11-16T21:20:27.933Z,99002.69
2022-11-16T21:22:54.826Z,99007.63
2022-11-16T21:25:21.265Z,99008.44
2022-11-16T21:27:48.195Z,98998.25
2022-11-16T21:30:14.648Z,98987.44
2022-11-16T21:32:41.023Z,98985.56
2022-11-16T21:35:07.514Z,98979.31
2022-11-16T21:37:34.084Z,98976.84
2022-11-16T21:40:00.368Z,98970.97
2022-11-16T21:42:26.628Z,98961.81
2022-11-16T21:44:52.875Z,98963.47
2022-11-16T21:47:21.015Z,98960.50
2022-11-16T21:50:08.648Z,98956.16
2022-11-16T21:52:33.767Z,98952.19
2022-11-16T21:55:00.193Z,98949.88
2022-11-16T21:57:26.464Z,98947.78
2022-11-16T21:59:53.051Z,98944.00
2022-11-16T22:02:19.338Z,98941.88
2022-11-16T22:05:04.424Z,98940.00
2022-11-16T22:07:33.411Z,98932.97
2022-11-16T22:10:01.379Z,98915.56
2022-11-16T22:12:28.024Z,98917.19
2022-11-16T22:14:54.843Z,98917.41
2022-11-16T22:17:21.864Z,98907.91
2022-11-16T22:19:48.457Z,98903.91
2022-11-16T22:22:14.732Z,98903.66
2022-11-16T22:24:41.359Z,98893.91
2022-11-16T22:27:08.673Z,98892.03
2022-11-16T22:29:35.061Z,98872.28
2022-11-16T22:32:01.384Z,98871.91
2022-11-16T22:34:27.641Z,98870.28
2022-11-16T22:36:53.924Z,98873.97
2022-11-16T22:39:20.156Z,98867.16
2022-11-16T22:41:46.427Z,98862.22
2022-11-16T22:44:15.332Z,98848.59
2022-11-16T22:46:41.802Z,98840.50
2022-11-16T22:49:08.717Z,98832.25
2022-11-16T22:51:35.007Z,98830.13
2022-11-16T22:54:04.820Z,98818.50
2022-11-16T22:56:32.434Z,98811.78
2022-11-16T22:58:59.204Z,98815.56
2022-11-16T23:01:25.466Z,98803.94
2022-11-16T23:03:51.870Z,98805.81
2022-11-16T23:06:18.296Z,98802.28
2022-11-16T23:08:44.839Z,98791.47
2022-11-16T23:11:36.775Z,98787.47
2022-11-16T23:14:22.589Z,98785.34
2022-11-16T23:16:48.946Z,98784.28
2022-11-16T23:19:35.296Z,98770.53
2022-11-16T23:22:20.741Z,98755.63
2022-11-16T23:25:05.394Z,98746.34
2022-11-16T23:27:38.730Z,98740.47
2022-11-16T23:30:11.882Z,98730.13
2022-11-16T23:32:38.919Z,98722.00
2022-11-16T23:35:05.406Z,98722.34
2022-11-16T23:37:31.647Z,98723.19
2022-11-16T23:39:57.880Z,98705.44
2022-11-16T23:42:42.822Z,98699.78
2022-11-16T23:45:09.190Z,98686.97
2022-11-16T23:47:35.536Z,98673.47
2022-11-16T23:50:01.792Z,98655.84
2022-11-16T23:52:28.046Z,98649.59
2022-11-16T23:54:54.699Z,98649.13
2022-11-16T23:57:20.950Z,98654.53
2022-11-16T23:59:47.268Z,98642.69
